createdAt,value
2022-10-03T00:00:11.201Z,-26.5
2022-10-03T00:04:13.828Z,-26.5
2022-10-03T00:06:15.783Z,-26.5
2022-10-03T00:08:16.873Z,-26.2
2022-10-03T00:10:17.862Z,-26.3
2022-10-03T00:14:20.074Z,-26.5
2022-10-03T00:16:22.036Z,-26.4
2022-10-03T00:18:23.737Z,-26.2
2022-10-03T00:20:25.483Z,-26.4
2022-10-03T00:24:28.085Z,-26.3
2022-10-03T00:26:29.819Z,-26.4
2022-10-03T00:30:32.741Z,-26.2
2022-10-03T00:32:34.611Z,-26.4
2022-10-03T00:34:36.359Z,-26.4
2022-10-03T00:36:37.666Z,-26.6
2022-10-03T00:42:41.920Z,-26.4
2022-10-03T00:44:43.601Z,-26.3
2022-10-03T00:46:45.497Z,-26.4
2022-10-03T00:48:47.092Z,-26.4
2022-10-03T00:50:48.252Z,-26.3
2022-10-03T00:52:49.895Z,-26.3
2022-10-03T00:54:51.721Z,-26.2
2022-10-03T00:56:53.592Z,-26.2
2022-10-03T00:58:55.097Z,-26.2
2022-10-03T01:00:57.086Z,-26.5
2022-10-03T01:02:58.760Z,-26.2
2022-10-03T01:07:01.972Z,-26.3
2022-10-03T01:09:03.524Z,-26.2
2022-10-03T01:11:04.507Z,-26.2
2022-10-03T01:13:06.269Z,-26
2022-10-03T01:15:07.635Z,-26.2
2022-10-03T01:17:09.367Z,-26.2
2022-10-03T01:19:10.895Z,-26.3
2022-10-03T01:21:12.803Z,-26.2
2022-10-03T01:25:15.929Z,-26.1
2022-10-03T01:29:18.702Z,-26.1
2022-10-03T01:31:19.652Z,-26.5
2022-10-03T01:33:20.942Z,-26.2
2022-10-03T01:35:22.107Z,-26.3
2022-10-03T01:41:25.465Z,-26.3
2022-10-03T01:43:26.464Z,-26.4
2022-10-03T01:45:28.357Z,-26.3
2022-10-03T01:47:29.607Z,-26.5
2022-10-03T01:49:31.053Z,-26.5
2022-10-03T01:51:32.363Z,-26.5
2022-10-03T01:55:34.924Z,-26.4
2022-10-03T01:57:36.519Z,-26.5
2022-10-03T01:59:37.816Z,-26.4
2022-10-03T02:01:39.339Z,-26.4
2022-10-03T02:03:40.982Z,-26.3
2022-10-03T02:05:42.267Z,-26.3
2022-10-03T02:07:43.293Z,-26.4
2022-10-03T02:09:44.881Z,-26.2
2022-10-03T02:11:46.307Z,-26
2022-10-03T02:13:47.448Z,-26.5
2022-10-03T02:17:50.169Z,-26.3
2022-10-03T02:19:51.188Z,-26.2
2022-10-03T02:21:52.180Z,-26.5
2022-10-03T02:23:53.856Z,-26.2
2022-10-03T02:25:55.633Z,-26.3
2022-10-03T02:27:57.097Z,-26.3
2022-10-03T02:29:58.584Z,-26.1
2022-10-03T02:32:00.190Z,-26.4
2022-10-03T02:34:02.026Z,-26.2
2022-10-03T02:40:06.698Z,-26.3
2022-10-03T02:42:07.778Z,-26.4
2022-10-03T02:44:09.657Z,-26.2
2022-10-03T02:46:10.617Z,-26.2
2022-10-03T02:48:30.493Z,-26.4
2022-10-03T02:50:13.998Z,-26.3
2022-10-03T02:54:16.143Z,-26.2
2022-10-03T02:56:17.373Z,-26.1
2022-10-03T02:58:18.713Z,-26.1
2022-10-03T03:00:20.159Z,-26.3
2022-10-03T03:01:04.001Z,-26.5
2022-10-03T03:05:06.241Z,-26.5
2022-10-03T03:07:07.449Z,-26.6
2022-10-03T03:09:08.876Z,-26.2
2022-10-03T03:11:10.554Z,-26.4
2022-10-03T03:15:14.019Z,-27.2
2022-10-03T03:17:15.091Z,-27.3
2022-10-03T03:19:17.001Z,-27.4
2022-10-03T03:21:18.063Z,-27.4
2022-10-03T03:23:19.106Z,-27.3
2022-10-03T03:25:20.136Z,-27.6
2022-10-03T03:27:21.704Z,-27.2
2022-10-03T03:29:23.306Z,-27.4
2022-10-03T03:31:24.421Z,-27.4
2022-10-03T03:33:25.840Z,-27.5
2022-10-03T03:35:27.133Z,-27.4
2022-10-03T03:37:28.631Z,-27.4
2022-10-03T03:39:30.382Z,-27.3
2022-10-03T03:41:32.277Z,-27.5
2022-10-03T03:43:33.235Z,-27.5
2022-10-03T03:45:35.190Z,-27.5
2022-10-03T03:47:36.687Z,-27.5
2022-10-03T03:49:37.850Z,-27.2
2022-10-03T03:51:39.626Z,-27.3
2022-10-03T03:53:40.943Z,-27.2
2022-10-03T03:55:42.551Z,-27.5
2022-10-03T03:57:43.872Z,-27.1
2022-10-03T03:59:44.942Z,-27.6
2022-10-03T04:03:47.234Z,-27.4
2022-10-03T04:05:48.339Z,-27.4
2022-10-03T04:07:49.656Z,-27.4
2022-10-03T04:09:51.148Z,-27.5
2022-10-03T04:15:55.678Z,-27.1
2022-10-03T04:17:56.862Z,-27.4
2022-10-03T04:19:57.977Z,-27.5
2022-10-03T04:21:59.634Z,-27.5
2022-10-03T04:24:00.620Z,-27.5
2022-10-03T04:26:02.538Z,-27.4
2022-10-03T04:30:04.884Z,-27.4
2022-10-03T04:32:05.952Z,-27.5
2022-10-03T04:34:07.148Z,-27.2
2022-10-03T04:36:09.124Z,-27.5
2022-10-03T04:42:12.947Z,-27.5
2022-10-03T04:44:14.262Z,-27.3
2022-10-03T04:46:15.721Z,-27.3
2022-10-03T04:48:17.554Z,-27.5
2022-10-03T04:50:18.753Z,-27.3
2022-10-03T04:52:20.047Z,-27.3
2022-10-03T04:54:21.653Z,-27.3
2022-10-03T04:56:23.112Z,-27.3
2022-10-03T04:58:24.186Z,-27.3
2022-10-03T05:00:25.432Z,-27.4
2022-10-03T05:02:27.121Z,-27.3
2022-10-03T05:04:28.222Z,-27.3
2022-10-03T05:06:30.003Z,-27.2
2022-10-03T05:08:31.099Z,-27.3
2022-10-03T05:10:32.735Z,-27.7
2022-10-03T05:12:33.915Z,-27.4
2022-10-03T05:14:35.498Z,-27.4
2022-10-03T05:16:36.607Z,-27.2
2022-10-03T05:18:37.709Z,-27.4
2022-10-03T05:20:39.183Z,-27.2
2022-10-03T05:22:40.993Z,-27.4
2022-10-03T05:24:42.271Z,-27.3
2022-10-03T05:28:45.787Z,-27.1
2022-10-03T05:30:46.828Z,-27.3
2022-10-03T05:32:48.356Z,-27.3
2022-10-03T05:34:49.629Z,-27.4
2022-10-03T05:36:51.258Z,-27.3
2022-10-03T05:40:54.090Z,-27.2
2022-10-03T05:42:55.567Z,-27.5
2022-10-03T05:44:57.367Z,-27.4
2022-10-03T05:46:58.671Z,-27.4
2022-10-03T05:49:00.274Z,-27.3
2022-10-03T05:51:02.143Z,-27.3
2022-10-03T05:55:04.420Z,-27.3
2022-10-03T05:57:05.940Z,-27.4
2022-10-03T05:59:07.769Z,-27.4
2022-10-03T06:01:09.673Z,-27.2
2022-10-03T06:03:10.893Z,-27.3
2022-10-03T06:05:11.939Z,-27.4
2022-10-03T06:07:13.253Z,-27.5
2022-10-03T06:09:14.805Z,-27.3
2022-10-03T06:11:16.176Z,-27.4
2022-10-03T06:13:17.625Z,-27.5
2022-10-03T06:17:20.527Z,-27.4
2022-10-03T06:19:21.991Z,-27.4
2022-10-03T06:21:23.105Z,-20.8
2022-10-03T06:23:24.314Z,-13.2
2022-10-03T06:27:27.340Z,-9.5
2022-10-03T06:29:29.170Z,-4.6
2022-10-03T06:31:32.143Z,-6.2
2022-10-03T06:33:32.042Z,-8.89
2022-10-03T06:37:35.108Z,3
2022-10-03T06:39:36.873Z,0.9
2022-10-03T06:41:38.263Z,5.1
2022-10-03T06:43:39.455Z,2.4
2022-10-03T06:45:41.311Z,-2.6
2022-10-03T06:47:42.755Z,-3
2022-10-03T06:49:44.689Z,-2.09
2022-10-03T06:53:47.753Z,-3.2
2022-10-03T06:55:49.372Z,-1.5
2022-10-03T06:57:50.911Z,-3.4
2022-10-03T06:59:52.141Z,-0.5
2022-10-03T07:05:56.489Z,0.2
2022-10-03T07:07:57.682Z,25.9
2022-10-03T07:09:58.751Z,24.1
2022-10-03T07:11:59.890Z,23.8
2022-10-03T07:14:00.896Z,26.5
2022-10-03T07:16:25.266Z,38.3
2022-10-03T07:18:03.339Z,39.09
2022-10-03T07:20:04.799Z,52.7
2022-10-03T07:22:06.610Z,68.6
2022-10-03T07:24:08.047Z,81.1
2022-10-03T07:26:09.038Z,83
2022-10-03T07:28:09.954Z,82.9
2022-10-03T07:30:11.648Z,82.9
2022-10-03T07:32:13.490Z,83.3
2022-10-03T07:34:14.970Z,83.2
2022-10-03T07:36:16.571Z,83.2
2022-10-03T07:38:17.750Z,83.4
2022-10-03T07:40:19.268Z,83
2022-10-03T07:48:24.655Z,82.3
2022-10-03T07:50:25.726Z,82.6
2022-10-03T07:52:26.871Z,82.7
2022-10-03T07:54:28.415Z,82.9
2022-10-03T07:56:29.561Z,83.3
2022-10-03T07:58:31.607Z,83.1
2022-10-03T08:00:34.500Z,83.5
2022-10-03T08:04:35.886Z,83
2022-10-03T08:06:37.689Z,83.2
2022-10-03T08:08:39.453Z,83.2
2022-10-03T08:10:40.986Z,83.6
2022-10-03T08:12:42.430Z,83.6
2022-10-03T08:14:43.259Z,83.2
2022-10-03T08:16:44.210Z,83.3
2022-10-03T08:18:45.416Z,83.8
2022-10-03T08:20:46.825Z,83.2
2022-10-03T08:22:48.328Z,83.6
2022-10-03T08:24:49.525Z,83.4
2022-10-03T08:26:50.797Z,83.8
2022-10-03T08:28:52.319Z,83.4
2022-10-03T08:30:53.524Z,83.5
2022-10-03T08:32:54.661Z,83.4
2022-10-03T08:34:56.034Z,83.5
2022-10-03T08:36:57.378Z,83.7
2022-10-03T08:43:02.286Z,84
2022-10-03T08:45:03.239Z,83.5
2022-10-03T08:47:04.823Z,83.7
2022-10-03T08:51:07.404Z,83.7
2022-10-03T08:53:09.140Z,83.6
2022-10-03T08:55:10.806Z,83.7
2022-10-03T08:57:12.251Z,83.6
2022-10-03T09:01:13.951Z,83.7
2022-10-03T09:03:35.156Z,83.7
2022-10-03T09:05:17.262Z,83.6
2022-10-03T09:07:19.088Z,83.8
2022-10-03T09:09:20.123Z,83.3
2022-10-03T09:11:21.338Z,83.5
2022-10-03T09:13:22.958Z,83.7
2022-10-03T09:15:23.900Z,83.7
2022-10-03T09:23:29.070Z,83.7
2022-10-03T09:25:30.294Z,83.9
2022-10-03T09:31:35.126Z,83.8
2022-10-03T09:33:36.944Z,83.8
2022-10-03T09:35:37.409Z,83.8
2022-10-03T09:37:39.079Z,83.2
2022-10-03T09:39:39.969Z,83.1
2022-10-03T09:43:42.485Z,82.7
2022-10-03T09:45:43.314Z,82.1
2022-10-03T09:46:27.005Z,82.2
2022-10-03T09:50:29.243Z,81.3
2022-10-03T09:54:31.760Z,80
2022-10-03T09:56:32.679Z,79.6
2022-10-03T09:58:34.333Z,79
2022-10-03T10:00:35.460Z,78.19
2022-10-03T10:02:36.382Z,78.1
2022-10-03T10:04:54.055Z,77.4
2022-10-03T10:06:40.126Z,77
2022-10-03T10:08:40.754Z,76.19
2022-10-03T10:10:42.454Z,76
2022-10-03T10:12:43.775Z,75.4
2022-10-03T10:14:45.139Z,74.9
2022-10-03T10:16:48.251Z,74.6
2022-10-03T10:20:47.975Z,73
2022-10-03T10:22:48.953Z,72.69
2022-10-03T10:26:52.058Z,71.69
2022-10-03T10:28:53.750Z,70.6
2022-10-03T10:36:59.784Z,67.5
2022-10-03T10:39:01.039Z,66.6
2022-10-03T10:41:03.607Z,66
2022-10-03T10:43:03.081Z,65.3
2022-10-03T10:45:04.446Z,65.3
2022-10-03T10:49:06.838Z,8.39
2022-10-03T10:53:09.742Z,19.1
2022-10-03T10:55:11.194Z,21
2022-10-03T10:57:12.066Z,66.19
2022-10-03T10:59:13.112Z,64.69
2022-10-03T11:01:13.999Z,63.6
2022-10-03T11:03:15.553Z,62.5
2022-10-03T11:05:16.532Z,62.1
2022-10-03T11:09:18.478Z,59.2
2022-10-03T11:11:19.743Z,57.3
2022-10-03T11:13:21.277Z,57.1
2022-10-03T11:15:22.744Z,55.2
2022-10-03T11:21:26.903Z,47.5
2022-10-03T11:23:27.977Z,44.4
2022-10-03T11:25:29.686Z,41.1
2022-10-03T11:27:31.452Z,37.5
2022-10-03T11:29:32.750Z,35.09
2022-10-03T11:31:34.102Z,33.8
2022-10-03T11:33:35.804Z,32.7
2022-10-03T11:35:40.863Z,31
2022-10-03T11:37:38.701Z,29.3
2022-10-03T11:39:40.431Z,27.4
2022-10-03T11:41:41.854Z,26.4
2022-10-03T11:43:42.724Z,26.2
2022-10-03T11:45:43.811Z,24.3
2022-10-03T11:47:45.256Z,23.7
2022-10-03T11:49:46.978Z,21.6
2022-10-03T11:51:51.581Z,21.6
2022-10-03T11:53:49.442Z,21.1
2022-10-03T11:55:50.446Z,20.4
2022-10-03T11:57:51.752Z,17.79
2022-10-03T12:03:56.215Z,16.29
2022-10-03T12:05:57.755Z,14.4
2022-10-03T12:07:59.038Z,14.6
2022-10-03T12:10:00.780Z,12.1
2022-10-03T12:12:02.407Z,12.5
2022-10-03T12:14:07.401Z,11.1
2022-10-03T12:16:05.016Z,11.4
2022-10-03T12:18:06.023Z,11.5
2022-10-03T12:20:07.752Z,11.1
2022-10-03T12:22:09.109Z,9.6
2022-10-03T12:24:10.645Z,9.1
2022-10-03T12:26:11.624Z,-28.2
2022-10-03T12:28:12.972Z,-28
2022-10-03T12:30:13.876Z,-28
2022-10-03T12:32:15.088Z,-28.3
2022-10-03T12:34:16.482Z,-27.9
2022-10-03T12:36:18.076Z,-27.9
2022-10-03T12:38:19.392Z,-28
2022-10-03T12:40:20.413Z,-28.1
2022-10-03T12:42:21.278Z,-28
2022-10-03T12:44:22.523Z,-28.1
2022-10-03T12:46:24.162Z,-27.9
2022-10-03T12:48:25.711Z,-28
2022-10-03T12:50:26.889Z,-28
2022-10-03T12:52:27.893Z,-28
2022-10-03T12:54:28.887Z,-28.1
2022-10-03T12:56:30.277Z,-27.9
2022-10-03T12:58:31.580Z,-27.9
2022-10-03T13:00:32.458Z,-27.9
2022-10-03T13:02:33.739Z,-28
2022-10-03T13:04:34.949Z,-28.1
2022-10-03T13:07:01.575Z,-27.9
2022-10-03T13:08:37.016Z,-27.6
2022-10-03T13:12:40.022Z,-27.7
2022-10-03T13:14:41.791Z,-27.9
2022-10-03T13:16:43.301Z,-27.5
2022-10-03T13:18:44.309Z,-27.5
2022-10-03T13:20:45.594Z,-27.7
2022-10-03T13:22:47.101Z,-27.7
2022-10-03T13:24:48.326Z,-27.8
2022-10-03T13:26:49.810Z,-27.5
2022-10-03T13:28:51.648Z,-28
2022-10-03T13:30:52.585Z,-28
2022-10-03T13:32:54.368Z,-27.9
2022-10-03T13:34:55.614Z,-28.2
2022-10-03T13:36:56.947Z,-28.3
2022-10-03T13:38:58.459Z,-27.7
2022-10-03T13:41:00.072Z,-27.4
2022-10-03T13:43:01.060Z,-27.7
2022-10-03T13:45:02.255Z,-27.7
2022-10-03T13:47:03.904Z,-27.7
2022-10-03T13:49:05.501Z,-27.6
2022-10-03T13:51:07.076Z,-27.7
2022-10-03T13:53:07.995Z,-27.6
2022-10-03T13:55:08.983Z,-27.9
2022-10-03T14:01:12.748Z,-27.7
2022-10-03T14:03:14.556Z,-27.7
2022-10-03T14:07:16.419Z,-27.9
2022-10-03T14:09:17.747Z,-27.1
2022-10-03T14:11:18.919Z,-27.8
2022-10-03T14:13:20.552Z,-27.9
2022-10-03T14:15:21.490Z,-27.8
2022-10-03T14:17:23.081Z,-27.7
2022-10-03T14:19:24.255Z,-27.7
2022-10-03T14:21:25.571Z,-27.7
2022-10-03T14:23:26.574Z,-27.5
2022-10-03T14:25:28.291Z,-27.7
2022-10-03T14:27:29.507Z,-27.7
2022-10-03T14:29:31.051Z,-27.7
2022-10-03T14:31:32.858Z,-27.5
2022-10-03T14:33:34.376Z,-27.4
2022-10-03T14:35:35.369Z,-27.6
2022-10-03T14:37:36.486Z,-27.6
2022-10-03T14:39:37.823Z,-27.8
2022-10-03T14:41:39.432Z,-28
2022-10-03T14:43:40.826Z,-28.2
2022-10-03T14:45:42.122Z,-28.1
2022-10-03T14:47:43.658Z,-27.4
2022-10-03T14:49:56.218Z,-27.5
2022-10-03T14:51:46.781Z,-27.8
2022-10-03T14:53:47.685Z,-28.3
2022-10-03T14:55:48.716Z,-28
2022-10-03T14:58:09.083Z,-28
2022-10-03T14:59:51.430Z,-28.2
2022-10-03T15:01:52.317Z,-28
2022-10-03T15:03:53.324Z,-27.9
2022-10-03T15:05:54.298Z,-27.9
2022-10-03T15:07:55.671Z,-27.8
2022-10-03T15:09:57.121Z,-28
2022-10-03T15:11:57.989Z,-28.2
2022-10-03T15:13:59.652Z,-27.9
2022-10-03T15:16:01.076Z,-28.2
2022-10-03T15:18:02.117Z,-27.9
2022-10-03T15:20:03.861Z,-28
2022-10-03T15:22:04.838Z,-28
2022-10-03T15:26:07.643Z,-28.3
2022-10-03T15:28:08.632Z,-28.5
2022-10-03T15:30:09.578Z,-28
2022-10-03T15:32:10.960Z,-28.1
2022-10-03T15:34:12.554Z,-27.9
2022-10-03T15:36:13.959Z,-28.1
2022-10-03T15:42:18.263Z,-28
2022-10-03T15:44:19.204Z,-27.8
2022-10-03T15:46:21.016Z,-28.2
2022-10-03T15:48:22.501Z,-28
2022-10-03T15:50:23.536Z,-27.8
2022-10-03T15:52:25.191Z,-28
2022-10-03T15:56:27.842Z,-27.9
2022-10-03T15:58:29.541Z,-27.9
2022-10-03T16:02:33.051Z,-28.1
2022-10-03T16:04:34.400Z,-28
2022-10-03T16:06:36.206Z,-28
2022-10-03T16:08:36.948Z,-28.2
2022-10-03T16:10:38.657Z,-27.4
2022-10-03T16:12:39.944Z,-28
2022-10-03T16:14:41.448Z,-28
2022-10-03T16:16:42.691Z,-28
2022-10-03T16:18:43.970Z,-27.7
2022-10-03T16:22:46.519Z,-27.9
2022-10-03T16:24:47.980Z,-27.8
2022-10-03T16:26:48.870Z,-28
2022-10-03T16:28:50.407Z,-27.9
2022-10-03T16:31:44.663Z,-27.5
2022-10-03T16:33:45.357Z,-27.9
2022-10-03T16:35:46.247Z,-27.9
2022-10-03T16:39:51.824Z,-27.8
2022-10-03T16:41:50.751Z,-27.8
2022-10-03T16:43:51.845Z,-27.6
2022-10-03T16:45:53.324Z,-27.8
2022-10-03T16:47:54.924Z,-27.6
2022-10-03T16:49:56.687Z,-27.9
2022-10-03T16:51:58.222Z,-28
2022-10-03T16:56:00.940Z,-28
2022-10-03T16:58:01.957Z,-27.5
2022-10-03T17:00:03.151Z,-27.5
2022-10-03T17:02:04.924Z,-27.8
2022-10-03T17:04:05.999Z,-27.7
2022-10-03T17:06:07.800Z,-27.7
2022-10-03T17:08:29.984Z,-27.8
2022-10-03T17:10:10.607Z,-27.5
2022-10-03T17:12:12.392Z,-27.7
2022-10-03T17:14:13.822Z,-27.8
2022-10-03T17:16:14.906Z,-27.6
2022-10-03T17:18:16.603Z,-27.7
2022-10-03T17:20:18.099Z,-27.7
2022-10-03T17:22:19.388Z,-27.7
2022-10-03T17:28:23.325Z,-27.7
2022-10-03T17:30:24.256Z,-27.5
2022-10-03T17:32:25.274Z,-27.3
2022-10-03T17:34:26.388Z,-27.3
2022-10-03T17:36:28.325Z,-27.4
2022-10-03T17:38:48.748Z,-27.8
2022-10-03T17:40:31.483Z,-27.5
2022-10-03T17:42:32.938Z,-27.3
2022-10-03T17:44:34.629Z,-27.6
2022-10-03T17:46:35.984Z,-27.4
2022-10-03T17:48:37.246Z,-27.5
2022-10-03T17:50:38.372Z,-27.3
2022-10-03T17:52:39.913Z,-27.5
2022-10-03T17:54:40.884Z,-27.6
2022-10-03T18:00:45.482Z,-27.4
2022-10-03T18:02:46.581Z,-27.4
2022-10-03T18:04:47.757Z,-27.3
2022-10-03T18:06:48.933Z,-27.5
2022-10-03T18:08:50.205Z,-27.4
2022-10-03T18:10:51.227Z,-27.3
2022-10-03T18:14:54.341Z,-27.5
2022-10-03T18:16:56.305Z,-27.5
2022-10-03T18:18:58.096Z,-27.6
2022-10-03T18:20:59.417Z,-27.4
2022-10-03T18:23:00.637Z,-27.5
2022-10-03T18:25:02.282Z,-27.6
2022-10-03T18:27:03.818Z,-27.5
2022-10-03T18:29:05.466Z,-27.5
2022-10-03T18:31:07.127Z,-27.5
2022-10-03T18:33:08.281Z,-27.5
2022-10-03T18:35:09.677Z,-27.2
2022-10-03T18:39:13.042Z,-27.5
2022-10-03T18:41:14.644Z,-27.4
2022-10-03T18:43:15.808Z,-27.4
2022-10-03T18:45:17.545Z,-27.4
2022-10-03T18:47:18.703Z,-27.4
2022-10-03T18:49:34.716Z,-27.6
2022-10-03T18:51:21.881Z,-27.5
2022-10-03T18:53:23.228Z,-27.4
2022-10-03T18:59:27.603Z,-27.5
2022-10-03T19:01:28.987Z,-27.3
2022-10-03T19:03:30.476Z,-27.5
2022-10-03T19:05:31.842Z,-27.3
2022-10-03T19:07:33.112Z,-27.3
2022-10-03T19:09:34.241Z,-27.4
2022-10-03T19:11:35.543Z,-27.3
2022-10-03T19:13:37.046Z,-27.2
2022-10-03T19:15:38.637Z,-27.4
2022-10-03T19:17:40.245Z,-27.5
2022-10-03T19:19:42.138Z,-27.5
2022-10-03T19:21:43.582Z,-27.6
2022-10-03T19:23:45.353Z,-27.5
2022-10-03T19:25:46.871Z,-27.6
2022-10-03T19:27:47.960Z,-27.7
2022-10-03T19:29:49.457Z,-27.6
2022-10-03T19:31:50.831Z,-27.8
2022-10-03T19:33:52.153Z,-27.5
2022-10-03T19:37:55.445Z,-27.5
2022-10-03T19:39:57.321Z,-27.5
2022-10-03T19:41:59.029Z,-27.4
2022-10-03T19:44:00.006Z,-27.3
2022-10-03T19:46:01.342Z,-27.6
2022-10-03T19:48:02.952Z,-27.5
2022-10-03T19:50:04.427Z,-27.5
2022-10-03T19:52:05.678Z,-27.4
2022-10-03T19:56:09.147Z,-27.3
2022-10-03T19:58:10.760Z,-27.5
2022-10-03T20:00:12.153Z,-27.5
2022-10-03T20:02:13.852Z,-27.5
2022-10-03T20:04:18.436Z,-27.6
2022-10-03T20:06:16.589Z,-27.5
2022-10-03T20:08:17.760Z,-27.2
2022-10-03T20:10:19.448Z,-27.4
2022-10-03T20:12:20.637Z,-27.4
2022-10-03T20:14:22.295Z,-27.5
2022-10-03T20:18:24.679Z,-27.5
2022-10-03T20:20:26.104Z,-27.3
2022-10-03T20:22:27.456Z,-27.4
2022-10-03T20:24:29.217Z,-27.2
2022-10-03T20:28:32.568Z,-27.5
2022-10-03T20:30:33.986Z,-27.4
2022-10-03T20:38:40.180Z,-27.2
2022-10-03T20:40:41.688Z,-27.5
2022-10-03T20:42:42.866Z,-27.5
2022-10-03T20:44:44.499Z,-27.5
2022-10-03T20:46:45.930Z,-27.4
2022-10-03T20:48:47.379Z,-27.5
2022-10-03T20:50:48.856Z,-27.3
2022-10-03T20:54:51.647Z,-27.4
2022-10-03T20:56:52.901Z,-27.4
2022-10-03T21:02:57.619Z,-27.6
2022-10-03T21:04:58.812Z,-27.4
2022-10-03T21:07:00.224Z,-27.5
2022-10-03T21:09:01.707Z,-27.5
2022-10-03T21:11:03.231Z,-27.7
2022-10-03T21:13:05.147Z,-27.5
2022-10-03T21:17:08.817Z,-27.5
2022-10-03T21:19:10.584Z,-27.4
2022-10-03T21:21:11.603Z,-27.4
2022-10-03T21:23:13.553Z,-27.5
2022-10-03T21:25:14.850Z,-27.2
2022-10-03T21:27:16.796Z,-27.5
2022-10-03T21:31:20.812Z,-27.5
2022-10-03T21:33:22.415Z,-27.5
2022-10-03T21:35:24.355Z,-27.7
2022-10-03T21:37:26.314Z,-27.3
2022-10-03T21:39:27.663Z,-27.3
2022-10-03T21:41:29.237Z,-27.5
2022-10-03T21:43:30.689Z,-27.5
2022-10-03T21:49:35.381Z,-27.4
2022-10-03T21:51:37.323Z,-27.5
2022-10-03T21:53:39.219Z,-27.2
2022-10-03T21:55:52.058Z,-27.3
2022-10-03T21:57:41.743Z,-27.2
2022-10-03T21:59:43.306Z,-27.4
2022-10-03T22:01:44.729Z,-27.5
2022-10-03T22:03:45.869Z,-27.5
2022-10-03T22:05:47.221Z,-27.2
2022-10-03T22:07:48.472Z,-27.3
2022-10-03T22:09:49.805Z,-27.3
2022-10-03T22:13:53.602Z,-27.5
2022-10-03T22:15:54.982Z,-27.2
2022-10-03T22:19:58.074Z,-27.4
2022-10-03T22:21:59.515Z,-27.1
2022-10-03T22:24:00.541Z,-27.5
2022-10-03T22:26:01.770Z,-27.4
2022-10-03T22:28:03.175Z,-27.4
2022-10-03T22:30:04.384Z,-27.4
2022-10-03T22:32:05.576Z,-27.3
2022-10-03T22:36:09.032Z,-27.5
2022-10-03T22:38:10.933Z,-27.3
2022-10-03T22:40:12.029Z,-27.3
2022-10-03T22:42:13.971Z,-27.4
2022-10-03T22:44:15.779Z,-27.3
2022-10-03T22:46:17.758Z,-27.1
2022-10-03T22:48:19.699Z,-27.2
2022-10-03T22:50:21.093Z,-27.4
2022-10-03T22:54:23.967Z,-27.6
2022-10-03T22:56:25.483Z,-27.5
2022-10-03T22:58:26.653Z,-27.5
2022-10-03T23:00:27.809Z,-27.5
2022-10-03T23:02:29.685Z,-27.5
2022-10-03T23:04:30.749Z,-27.5
2022-10-03T23:06:31.794Z,-27.2
2022-10-03T23:10:35.713Z,-27.3
2022-10-03T23:12:37.295Z,-27.3
2022-10-03T23:14:39.186Z,-27.4
2022-10-03T23:17:24.722Z,-27.4
2022-10-03T23:19:26.462Z,-27.5
2022-10-03T23:21:27.822Z,-27.3
2022-10-03T23:23:29.174Z,-27.2
2022-10-03T23:25:30.950Z,-27.1
2022-10-03T23:27:32.337Z,-27.4
2022-10-03T23:29:34.042Z,-27.4
2022-10-03T23:31:35.970Z,-27.5
2022-10-03T23:33:37.668Z,-27.4
2022-10-03T23:35:39.280Z,-27.3
2022-10-03T23:37:41.017Z,-27.2
2022-10-03T23:39:42.677Z,-27.5
2022-10-03T23:41:43.951Z,-27.3
2022-10-03T23:43:45.081Z,-27.4
2022-10-03T23:45:47.050Z,-27.3
2022-10-03T23:47:48.069Z,-27.3
2022-10-03T23:49:49.527Z,-27.4
2022-10-03T23:51:51.048Z,-27.3
2022-10-03T23:55:53.216Z,-27.5
2022-10-03T23:57:54.715Z,-27.3
2022-10-03T23:59:56.207Z,-27.3
